createdAt,value
2022-07-25T00:01:55.337Z,18.20
2022-07-25T00:04:23.772Z,18.20
2022-07-25T00:06:50.566Z,18.30
2022-07-25T00:09:17.945Z,18.20
2022-07-25T00:11:44.801Z,18.30
2022-07-25T00:14:11.830Z,18.30
2022-07-25T00:16:38.720Z,18.10
2022-07-25T00:19:05.841Z,18.10
2022-07-25T00:21:32.843Z,18.00
2022-07-25T00:23:59.879Z,18.00
2022-07-25T00:26:26.618Z,18.10
2022-07-25T00:28:53.895Z,18.10
2022-07-25T00:31:20.729Z,18.20
2022-07-25T00:33:47.813Z,18.20
2022-07-25T00:36:14.507Z,17.90
2022-07-25T00:38:41.554Z,17.60
2022-07-25T00:41:08.310Z,17.60
2022-07-25T00:43:35.405Z,17.40
2022-07-25T00:46:02.272Z,17.40
2022-07-25T00:48:30.519Z,17.30
2022-07-25T00:50:58.551Z,17.20
2022-07-25T00:53:26.033Z,17.20
2022-07-25T00:55:53.368Z,17.40
2022-07-25T00:58:20.538Z,17.40
2022-07-25T01:00:47.786Z,17.80
2022-07-25T01:03:15.108Z,17.80
2022-07-25T01:05:42.405Z,18.00
2022-07-25T01:08:10.365Z,17.70
2022-07-25T01:10:37.655Z,17.40
2022-07-25T01:13:05.519Z,17.40
2022-07-25T01:15:32.452Z,17.30
2022-07-25T01:17:59.625Z,17.30
2022-07-25T01:20:28.243Z,17.20
2022-07-25T01:22:55.450Z,17.10
2022-07-25T01:25:22.856Z,17.10
2022-07-25T01:27:55.094Z,17.30
2022-07-25T01:30:23.399Z,17.40
2022-07-25T01:32:50.735Z,17.20
2022-07-25T01:35:17.571Z,16.90
2022-07-25T01:37:46.105Z,17.00
2022-07-25T01:40:14.811Z,16.90
2022-07-25T01:42:42.724Z,17.00
2022-07-25T01:45:12.217Z,17.00
2022-07-25T01:47:39.945Z,17.10
2022-07-25T01:50:07.809Z,17.10
2022-07-25T01:52:35.730Z,17.20
2022-07-25T01:55:02.805Z,17.20
2022-07-25T01:57:30.812Z,17.10
2022-07-25T01:59:59.016Z,17.00
2022-07-25T02:02:26.219Z,17.00
2022-07-25T02:04:53.774Z,17.00
2022-07-25T02:07:20.593Z,16.90
2022-07-25T02:09:47.557Z,16.90
2022-07-25T02:12:14.265Z,16.90
2022-07-25T02:14:41.376Z,16.90
2022-07-25T02:17:08.612Z,16.90
2022-07-25T02:19:36.781Z,16.70
2022-07-25T02:22:03.857Z,16.70
2022-07-25T02:24:31.010Z,16.60
2022-07-25T02:26:57.995Z,16.90
2022-07-25T02:29:25.670Z,16.60
2022-07-25T02:31:53.076Z,16.60
2022-07-25T02:34:20.181Z,16.70
2022-07-25T02:36:47.215Z,16.80
2022-07-25T02:39:14.214Z,17.00
2022-07-25T02:41:41.265Z,17.00
2022-07-25T02:44:08.381Z,16.70
2022-07-25T02:46:35.734Z,16.70
2022-07-25T02:49:02.814Z,16.60
2022-07-25T02:51:30.202Z,16.60
2022-07-25T02:53:58.457Z,16.40
2022-07-25T02:56:36.580Z,16.50
2022-07-25T02:59:03.640Z,16.30
2022-07-25T03:01:30.803Z,16.20
2022-07-25T03:03:57.623Z,16.20
2022-07-25T03:06:24.706Z,16.30
2022-07-25T03:08:51.458Z,16.30
2022-07-25T03:11:18.837Z,16.10
2022-07-25T03:13:45.913Z,16.20
2022-07-25T03:16:12.983Z,16.10
2022-07-25T03:18:39.745Z,16.00
2022-07-25T03:21:07.416Z,16.00
2022-07-25T03:23:34.221Z,16.20
2022-07-25T03:26:01.330Z,16.30
2022-07-25T03:28:28.010Z,16.40
2022-07-25T03:30:55.257Z,16.40
2022-07-25T03:33:22.556Z,16.50
2022-07-25T03:35:49.653Z,16.20
2022-07-25T03:38:16.356Z,16.00
2022-07-25T03:40:43.572Z,16.00
2022-07-25T03:43:10.505Z,15.80
2022-07-25T03:45:37.639Z,15.80
2022-07-25T03:48:04.747Z,15.70
2022-07-25T03:50:31.817Z,15.80
2022-07-25T03:52:58.666Z,16.10
2022-07-25T03:55:25.960Z,16.30
2022-07-25T03:57:52.646Z,16.30
2022-07-25T04:00:19.701Z,16.20
2022-07-25T04:02:46.844Z,16.00
2022-07-25T04:05:14.162Z,16.00
2022-07-25T04:07:40.962Z,16.00
2022-07-25T04:10:09.847Z,16.00
2022-07-25T04:12:36.528Z,15.90
2022-07-25T04:15:03.808Z,16.00
2022-07-25T04:17:30.567Z,16.30
2022-07-25T04:19:57.325Z,16.10
2022-07-25T04:22:24.371Z,16.20
2022-07-25T04:24:51.123Z,16.10
2022-07-25T04:27:19.258Z,16.30
2022-07-25T04:29:45.958Z,16.40
2022-07-25T04:32:14.076Z,16.40
2022-07-25T04:34:40.856Z,16.40
2022-07-25T04:37:07.854Z,16.40
2022-07-25T04:39:34.554Z,16.40
2022-07-25T04:42:02.036Z,16.50
2022-07-25T04:44:28.765Z,16.50
2022-07-25T04:46:56.170Z,16.60
2022-07-25T04:49:22.857Z,16.70
2022-07-25T04:51:50.624Z,16.80
2022-07-25T04:54:17.322Z,16.90
2022-07-25T04:56:44.329Z,16.80
2022-07-25T04:59:11.013Z,16.90
2022-07-25T05:01:38.181Z,16.90
2022-07-25T05:04:05.485Z,16.90
2022-07-25T05:06:33.490Z,16.90
2022-07-25T05:09:00.369Z,17.00
2022-07-25T05:11:27.441Z,17.30
2022-07-25T05:13:54.218Z,17.40
2022-07-25T05:16:21.325Z,17.50
2022-07-25T05:18:48.081Z,17.60
2022-07-25T05:21:15.181Z,17.60
2022-07-25T05:23:41.883Z,17.70
2022-07-25T05:26:08.925Z,17.90
2022-07-25T05:28:36.029Z,17.80
2022-07-25T05:31:03.302Z,17.90
2022-07-25T05:33:30.225Z,17.90
2022-07-25T05:35:57.302Z,17.90
2022-07-25T05:38:24.276Z,18.10
2022-07-25T05:40:52.508Z,18.20
2022-07-25T05:43:19.701Z,18.40
2022-07-25T05:45:47.726Z,18.50
2022-07-25T05:48:15.575Z,18.70
2022-07-25T05:50:42.508Z,18.90
2022-07-25T05:53:09.809Z,18.80
2022-07-25T05:55:40.762Z,19.00
2022-07-25T05:58:09.674Z,19.10
2022-07-25T06:00:36.813Z,19.10
2022-07-25T06:03:04.455Z,19.20
2022-07-25T06:05:31.597Z,19.30
2022-07-25T06:07:58.631Z,19.50
2022-07-25T06:10:25.480Z,19.80
2022-07-25T06:12:52.635Z,19.80
2022-07-25T06:15:22.572Z,20.00
2022-07-25T06:17:54.241Z,20.20
2022-07-25T06:20:21.021Z,20.20
2022-07-25T06:22:48.255Z,20.20
2022-07-25T06:25:15.256Z,20.50
2022-07-25T06:27:43.005Z,20.60
2022-07-25T06:30:19.108Z,20.70
2022-07-25T06:32:48.469Z,20.70
2022-07-25T06:35:15.850Z,20.90
2022-07-25T06:37:42.992Z,20.90
2022-07-25T06:40:10.260Z,21.10
2022-07-25T06:42:41.445Z,21.20
2022-07-25T06:45:09.764Z,21.40
2022-07-25T06:47:37.433Z,21.70
2022-07-25T06:50:11.139Z,21.80
2022-07-25T06:52:38.870Z,22.00
2022-07-25T06:55:06.739Z,22.20
2022-07-25T06:57:33.486Z,22.30
2022-07-25T07:00:00.242Z,22.60
2022-07-25T07:02:27.284Z,22.60
2022-07-25T07:04:54.003Z,22.60
2022-07-25T07:07:21.167Z,22.70
2022-07-25T07:09:47.902Z,22.80
2022-07-25T07:12:14.921Z,22.90
2022-07-25T07:14:43.638Z,23.10
2022-07-25T07:17:10.734Z,23.20
2022-07-25T07:19:44.353Z,23.40
2022-07-25T07:22:11.428Z,23.40
2022-07-25T07:24:44.225Z,23.50
2022-07-25T07:27:15.194Z,23.70
2022-07-25T07:29:45.883Z,23.70
2022-07-25T07:32:13.658Z,23.80
2022-07-25T07:34:40.403Z,23.90
2022-07-25T07:37:07.463Z,24.20
2022-07-25T07:39:34.193Z,24.50
2022-07-25T07:42:01.236Z,24.60
2022-07-25T07:44:27.958Z,24.60
2022-07-25T07:46:55.105Z,24.60
2022-07-25T07:49:21.981Z,24.80
2022-07-25T07:51:49.016Z,24.80
2022-07-25T07:54:34.209Z,25.10
2022-07-25T07:57:01.368Z,25.10
2022-07-25T07:59:28.067Z,25.20
2022-07-25T08:01:55.349Z,25.50
2022-07-25T08:04:22.347Z,25.70
2022-07-25T08:06:49.034Z,25.90
2022-07-25T08:09:16.109Z,26.30
2022-07-25T08:11:42.897Z,26.30
2022-07-25T08:14:10.730Z,26.40
2022-07-25T08:16:38.686Z,26.30
2022-07-25T08:19:05.879Z,26.30
2022-07-25T08:21:32.587Z,26.60
2022-07-25T08:23:59.658Z,27.10
2022-07-25T08:26:27.910Z,27.50
2022-07-25T08:29:17.130Z,27.80
2022-07-25T08:31:41.588Z,28.50
2022-07-25T08:34:09.134Z,29.10
2022-07-25T08:36:37.749Z,29.50
2022-07-25T08:39:05.941Z,29.90
2022-07-25T08:41:34.933Z,30.00
2022-07-25T08:44:04.492Z,30.20
2022-07-25T08:46:31.910Z,30.40
2022-07-25T08:48:59.307Z,30.50
2022-07-25T08:51:26.270Z,31.00
2022-07-25T08:53:55.501Z,31.10
2022-07-25T08:56:22.206Z,31.20
2022-07-25T08:58:49.783Z,31.00
2022-07-25T09:01:16.661Z,31.40
2022-07-25T09:03:44.140Z,31.50
2022-07-25T09:06:29.107Z,31.10
2022-07-25T09:08:58.178Z,31.30
2022-07-25T09:11:37.644Z,31.20
2022-07-25T09:14:11.073Z,31.10
2022-07-25T09:16:46.570Z,30.70
2022-07-25T09:19:18.692Z,31.40
2022-07-25T09:21:57.917Z,31.70
2022-07-25T09:24:26.636Z,31.50
2022-07-25T09:26:56.023Z,31.50
2022-07-25T09:29:30.553Z,32.30
2022-07-25T09:31:59.044Z,31.90
2022-07-25T09:34:41.066Z,32.50
2022-07-25T09:37:12.046Z,32.60
2022-07-25T09:39:47.390Z,32.40
2022-07-25T09:42:33.387Z,32.60
2022-07-25T09:45:20.673Z,33.10
2022-07-25T09:47:54.694Z,33.80
2022-07-25T09:50:23.351Z,33.30
2022-07-25T09:52:55.425Z,33.00
2022-07-25T09:55:23.313Z,33.20
2022-07-25T09:57:50.513Z,32.70
2022-07-25T10:00:21.478Z,32.80
2022-07-25T10:03:27.903Z,33.30
2022-07-25T10:06:00.944Z,33.50
2022-07-25T10:08:28.120Z,33.60
2022-07-25T10:10:55.501Z,33.50
2022-07-25T10:13:35.555Z,33.50
2022-07-25T10:16:03.332Z,34.00
2022-07-25T10:18:31.588Z,34.20
2022-07-25T10:21:25.683Z,33.80
2022-07-25T10:24:02.583Z,34.10
2022-07-25T10:26:30.671Z,33.80
2022-07-25T10:28:58.536Z,33.90
2022-07-25T10:31:42.170Z,33.80
2022-07-25T10:34:16.143Z,34.00
2022-07-25T10:36:51.786Z,34.80
2022-07-25T10:39:21.182Z,34.30
2022-07-25T10:42:02.300Z,34.10
2022-07-25T10:44:41.742Z,34.40
2022-07-25T10:47:13.066Z,34.40
2022-07-25T10:50:14.504Z,34.50
2022-07-25T10:52:41.852Z,34.20
2022-07-25T10:55:09.374Z,34.50
2022-07-25T10:57:45.148Z,34.40
2022-07-25T11:00:22.615Z,34.10
2022-07-25T11:02:50.155Z,34.60
2022-07-25T11:05:17.047Z,34.70
2022-07-25T11:08:20.000Z,34.60
2022-07-25T11:10:41.144Z,34.90
2022-07-25T11:13:14.676Z,35.10
2022-07-25T11:15:42.598Z,35.20
2022-07-25T11:18:09.659Z,35.10
2022-07-25T11:20:36.378Z,35.40
2022-07-25T11:23:03.419Z,35.40
2022-07-25T11:25:30.229Z,35.20
2022-07-25T11:28:00.245Z,35.30
2022-07-25T11:30:29.088Z,35.10
2022-07-25T11:32:58.909Z,35.00
2022-07-25T11:35:33.248Z,35.30
2022-07-25T11:38:02.689Z,35.40
2022-07-25T11:40:32.531Z,35.70
2022-07-25T11:43:01.291Z,35.60
2022-07-25T11:45:33.879Z,35.00
2022-07-25T11:48:13.370Z,35.40
2022-07-25T11:50:43.050Z,36.00
2022-07-25T11:53:15.752Z,36.10
2022-07-25T11:55:43.695Z,35.50
2022-07-25T11:58:13.136Z,35.90
2022-07-25T12:00:44.210Z,35.50
2022-07-25T12:03:20.003Z,35.50
2022-07-25T12:05:48.335Z,35.40
2022-07-25T12:08:20.848Z,35.90
2022-07-25T12:10:50.516Z,36.00
2022-07-25T12:13:29.287Z,35.90
2022-07-25T12:15:57.882Z,36.00
2022-07-25T12:18:25.563Z,35.30
2022-07-25T12:20:53.214Z,35.30
2022-07-25T12:23:22.103Z,35.50
2022-07-25T12:25:55.107Z,35.60
2022-07-25T12:28:22.411Z,35.70
2022-07-25T12:30:56.029Z,35.70
2022-07-25T12:33:23.722Z,36.10
2022-07-25T12:35:50.516Z,36.40
2022-07-25T12:38:17.601Z,35.80
2022-07-25T12:40:44.786Z,35.70
2022-07-25T12:43:11.806Z,35.70
2022-07-25T12:45:38.658Z,36.20
2022-07-25T12:48:05.998Z,36.20
2022-07-25T12:50:32.737Z,35.60
2022-07-25T12:52:59.883Z,35.40
2022-07-25T12:55:26.663Z,35.50
2022-07-25T12:57:54.434Z,36.10
2022-07-25T13:00:23.127Z,35.70
2022-07-25T13:02:52.224Z,36.20
2022-07-25T13:05:20.036Z,35.80
2022-07-25T13:07:49.250Z,36.20
2022-07-25T13:10:17.268Z,36.30
2022-07-25T13:12:44.470Z,36.20
2022-07-25T13:15:11.180Z,36.00
2022-07-25T13:17:38.207Z,36.30
2022-07-25T13:20:05.436Z,36.00
2022-07-25T13:22:32.724Z,36.20
2022-07-25T13:24:59.696Z,36.50
2022-07-25T13:27:26.378Z,36.30
2022-07-25T13:29:56.432Z,35.90
2022-07-25T13:32:24.040Z,35.80
2022-07-25T13:34:51.060Z,36.40
2022-07-25T13:37:17.862Z,36.20
2022-07-25T13:39:45.000Z,36.20
2022-07-25T13:42:11.668Z,36.70
2022-07-25T13:44:38.745Z,36.60
2022-07-25T13:47:05.623Z,36.80
2022-07-25T13:49:32.931Z,36.30
2022-07-25T13:51:59.657Z,36.80
2022-07-25T13:54:26.690Z,37.40
2022-07-25T13:56:53.472Z,36.90
2022-07-25T13:59:21.674Z,37.10
2022-07-25T14:01:49.395Z,37.50
2022-07-25T14:04:16.763Z,36.70
2022-07-25T14:06:43.767Z,36.90
2022-07-25T14:09:11.129Z,37.30
2022-07-25T14:11:38.344Z,36.90
2022-07-25T14:14:05.349Z,36.50
2022-07-25T14:16:34.056Z,37.10
2022-07-25T14:19:02.436Z,38.00
2022-07-25T14:21:29.876Z,37.90
2022-07-25T14:23:57.022Z,38.00
2022-07-25T14:26:23.739Z,37.70
2022-07-25T14:28:50.710Z,37.40
2022-07-25T14:31:17.837Z,38.00
2022-07-25T14:33:44.620Z,36.80
2022-07-25T14:36:11.725Z,37.50
2022-07-25T14:38:39.171Z,37.60
2022-07-25T14:41:10.707Z,37.90
2022-07-25T14:43:40.085Z,38.00
2022-07-25T14:46:08.291Z,37.50
2022-07-25T14:48:38.964Z,37.50
2022-07-25T14:51:07.245Z,37.10
2022-07-25T14:53:34.908Z,37.90
2022-07-25T14:56:04.334Z,37.30
2022-07-25T14:58:31.545Z,36.40
2022-07-25T15:00:58.661Z,35.90
2022-07-25T15:03:25.523Z,35.80
2022-07-25T15:05:52.808Z,35.90
2022-07-25T15:08:19.605Z,35.60
2022-07-25T15:10:47.244Z,35.40
2022-07-25T15:13:30.390Z,35.30
2022-07-25T15:15:58.667Z,36.10
2022-07-25T15:18:25.610Z,37.10
2022-07-25T15:20:52.663Z,37.50
2022-07-25T15:23:21.006Z,37.20
2022-07-25T15:26:04.588Z,38.20
2022-07-25T15:28:36.278Z,36.40
2022-07-25T15:31:04.229Z,38.10
2022-07-25T15:33:31.398Z,37.30
2022-07-25T15:35:59.023Z,38.50
2022-07-25T15:38:26.376Z,39.60
2022-07-25T15:40:53.450Z,39.60
2022-07-25T15:43:20.334Z,38.70
2022-07-25T15:45:48.171Z,39.60
2022-07-25T15:48:16.117Z,37.50
2022-07-25T15:50:46.054Z,35.20
2022-07-25T15:53:13.550Z,35.00
2022-07-25T15:55:41.934Z,35.10
2022-07-25T15:58:10.075Z,35.50
2022-07-25T16:00:38.781Z,34.50
2022-07-25T16:03:05.971Z,34.50
2022-07-25T16:05:33.080Z,34.40
2022-07-25T16:08:03.413Z,34.30
2022-07-25T16:10:32.298Z,34.30
2022-07-25T16:12:59.592Z,34.40
2022-07-25T16:15:26.851Z,35.10
2022-07-25T16:18:00.078Z,37.20
2022-07-25T16:20:31.741Z,38.30
2022-07-25T16:22:59.232Z,38.10
2022-07-25T16:25:27.445Z,37.50
2022-07-25T16:27:54.728Z,36.70
2022-07-25T16:30:21.605Z,36.50
2022-07-25T16:32:48.699Z,35.10
2022-07-25T16:35:15.669Z,34.50
2022-07-25T16:37:43.094Z,34.60
2022-07-25T16:40:10.113Z,34.10
2022-07-25T16:42:37.692Z,34.40
2022-07-25T16:45:05.563Z,35.70
2022-07-25T16:47:32.636Z,37.50
2022-07-25T16:49:59.345Z,37.40
2022-07-25T16:52:26.498Z,37.80
2022-07-25T16:54:53.198Z,38.10
2022-07-25T16:57:24.703Z,38.60
2022-07-25T16:59:53.281Z,39.30
2022-07-25T17:02:24.809Z,37.70
2022-07-25T17:04:54.501Z,37.70
2022-07-25T17:07:21.651Z,36.70
2022-07-25T17:09:48.365Z,34.90
2022-07-25T17:12:16.820Z,33.80
2022-07-25T17:14:44.503Z,33.80
2022-07-25T17:17:11.770Z,33.50
2022-07-25T17:19:39.947Z,33.10
2022-07-25T17:22:08.166Z,32.90
2022-07-25T17:24:35.673Z,32.50
2022-07-25T17:27:02.815Z,34.30
2022-07-25T17:29:29.721Z,35.90
2022-07-25T17:31:56.806Z,34.60
2022-07-25T17:34:24.408Z,33.60
2022-07-25T17:36:51.520Z,34.40
2022-07-25T17:39:18.289Z,33.20
2022-07-25T17:41:46.402Z,33.90
2022-07-25T17:44:13.521Z,34.30
2022-07-25T17:46:40.888Z,35.60
2022-07-25T17:49:07.733Z,35.70
2022-07-25T17:51:34.496Z,34.10
2022-07-25T17:54:01.515Z,34.70
2022-07-25T17:56:28.237Z,34.10
2022-07-25T17:58:56.427Z,33.20
2022-07-25T18:01:23.236Z,32.60
2022-07-25T18:03:50.861Z,32.10
2022-07-25T18:06:17.744Z,32.10
2022-07-25T18:08:44.868Z,31.60
2022-07-25T18:11:11.605Z,31.50
2022-07-25T18:13:38.797Z,31.10
2022-07-25T18:16:05.981Z,30.70
2022-07-25T18:18:33.358Z,30.70
2022-07-25T18:21:00.272Z,30.60
2022-07-25T18:23:28.977Z,30.10
2022-07-25T18:25:55.732Z,29.90
2022-07-25T18:28:22.938Z,29.90
2022-07-25T18:30:52.038Z,29.70
2022-07-25T18:33:20.699Z,29.50
2022-07-25T18:35:48.997Z,29.50
2022-07-25T18:38:16.051Z,29.40
2022-07-25T18:40:42.739Z,29.40
2022-07-25T18:43:10.635Z,29.40
2022-07-25T18:45:37.665Z,29.20
2022-07-25T18:48:06.596Z,29.10
2022-07-25T18:50:33.694Z,28.80
2022-07-25T18:53:00.876Z,28.80
2022-07-25T18:55:27.600Z,28.70
2022-07-25T18:57:54.686Z,28.70
2022-07-25T19:00:21.601Z,28.70
2022-07-25T19:02:48.734Z,28.50
2022-07-25T19:05:15.663Z,28.50
2022-07-25T19:07:43.171Z,28.50
2022-07-25T19:10:10.917Z,28.40
2022-07-25T19:12:38.373Z,28.30
2022-07-25T19:15:06.137Z,28.20
2022-07-25T19:17:35.473Z,28.20
2022-07-25T19:20:03.239Z,28.20
2022-07-25T19:22:30.368Z,28.20
2022-07-25T19:24:57.075Z,28.10
2022-07-25T19:27:25.787Z,28.10
2022-07-25T19:29:52.902Z,28.10
2022-07-25T19:32:19.598Z,28.10
2022-07-25T19:34:46.655Z,27.90
2022-07-25T19:37:13.429Z,27.80
2022-07-25T19:39:40.458Z,27.80
2022-07-25T19:42:09.731Z,27.80
2022-07-25T19:44:38.839Z,27.80
2022-07-25T19:47:11.236Z,27.80
2022-07-25T19:49:40.331Z,27.70
2022-07-25T19:52:08.284Z,27.60
2022-07-25T19:54:35.637Z,27.50
2022-07-25T19:57:02.634Z,27.60
2022-07-25T19:59:29.665Z,27.50
2022-07-25T20:01:56.865Z,27.60
2022-07-25T20:04:24.136Z,27.50
2022-07-25T20:06:50.836Z,27.40
2022-07-25T20:09:17.881Z,27.40
2022-07-25T20:11:44.905Z,27.40
2022-07-25T20:14:11.615Z,27.40
2022-07-25T20:16:39.596Z,27.40
2022-07-25T20:19:09.164Z,27.30
2022-07-25T20:21:37.254Z,27.00
2022-07-25T20:24:04.441Z,26.90
2022-07-25T20:26:31.422Z,27.00
2022-07-25T20:28:58.272Z,26.70
2022-07-25T20:31:25.650Z,26.70
2022-07-25T20:33:53.528Z,26.70
2022-07-25T20:36:21.290Z,26.70
2022-07-25T20:38:48.024Z,26.70
2022-07-25T20:41:16.039Z,26.60
2022-07-25T20:43:42.819Z,26.60
2022-07-25T20:46:09.978Z,26.50
2022-07-25T20:48:36.892Z,26.40
2022-07-25T20:51:03.877Z,26.30
2022-07-25T20:53:30.973Z,26.30
2022-07-25T20:55:58.272Z,26.20
2022-07-25T20:58:25.411Z,26.20
2022-07-25T21:00:52.248Z,26.10
2022-07-25T21:03:19.330Z,26.00
2022-07-25T21:05:46.038Z,25.90
2022-07-25T21:08:13.034Z,26.00
2022-07-25T21:10:39.852Z,25.90
2022-07-25T21:13:07.058Z,25.90
2022-07-25T21:15:33.958Z,25.90
2022-07-25T21:18:01.124Z,25.60
2022-07-25T21:22:55.642Z,25.60
2022-07-25T21:25:22.509Z,25.50
2022-07-25T21:27:49.666Z,25.50
2022-07-25T21:30:16.384Z,25.30
2022-07-25T21:32:44.682Z,25.30
2022-07-25T21:35:11.531Z,25.20
2022-07-25T21:37:38.763Z,25.10
2022-07-25T21:40:06.401Z,25.10
2022-07-25T21:42:33.457Z,25.00
2022-07-25T21:45:00.157Z,24.90
2022-07-25T21:47:27.184Z,24.90
2022-07-25T21:50:12.996Z,24.90
2022-07-25T21:52:40.636Z,24.90
2022-07-25T21:55:08.056Z,24.90
2022-07-25T21:57:35.151Z,24.80
2022-07-25T22:00:01.892Z,24.80
2022-07-25T22:02:28.616Z,24.70
2022-07-25T22:04:55.778Z,24.70
2022-07-25T22:07:22.882Z,24.60
2022-07-25T22:09:49.889Z,24.50
2022-07-25T22:12:16.663Z,24.50
2022-07-25T22:14:43.695Z,24.40
2022-07-25T22:17:10.550Z,24.40
2022-07-25T22:19:37.631Z,24.30
2022-07-25T22:22:06.064Z,24.20
2022-07-25T22:24:33.214Z,24.10
2022-07-25T22:27:00.201Z,24.20
2022-07-25T22:29:27.230Z,24.20
2022-07-25T22:31:54.008Z,24.00
2022-07-25T22:34:21.155Z,24.00
2022-07-25T22:36:47.884Z,24.10
2022-07-25T22:39:16.046Z,24.00
2022-07-25T22:41:43.273Z,23.90
2022-07-25T22:44:10.359Z,23.90
2022-07-25T22:46:37.189Z,23.90
2022-07-25T22:49:04.745Z,23.90
2022-07-25T22:51:31.661Z,24.00
2022-07-25T22:53:58.920Z,23.90
2022-07-25T22:56:26.649Z,23.90
2022-07-25T22:58:53.553Z,23.70
2022-07-25T23:01:21.480Z,23.60
2022-07-25T23:03:50.070Z,23.50
2022-07-25T23:06:19.539Z,23.50
2022-07-25T23:08:47.008Z,23.50
2022-07-25T23:11:14.298Z,23.60
2022-07-25T23:13:41.024Z,23.70
2022-07-25T23:16:10.254Z,23.60
2022-07-25T23:18:37.508Z,23.60
2022-07-25T23:21:04.554Z,23.60
2022-07-25T23:23:32.428Z,23.60
2022-07-25T23:25:59.462Z,23.50
2022-07-25T23:28:26.163Z,23.50
2022-07-25T23:30:53.234Z,23.40
2022-07-25T23:33:24.482Z,23.30
2022-07-25T23:35:53.437Z,23.30
2022-07-25T23:38:20.383Z,23.10
2022-07-25T23:40:47.619Z,23.10
2022-07-25T23:43:16.993Z,22.90
2022-07-25T23:45:58.953Z,23.00
2022-07-25T23:48:27.714Z,22.90
2022-07-25T23:50:54.753Z,22.80
2022-07-25T23:53:21.487Z,22.80
2022-07-25T23:55:48.494Z,23.10
2022-07-25T23:58:15.198Z,23.10
